Terminal Aerodrome Forecast
Issued by NWS Green Bay, WI

Home | Current Version | Previous Version | Graphics & Text | Print | Product List | Glossary On
Versions: 1 2 3 4 5 6 7 8 9 10 11 12 13 14 15 16 17 18 19 20 21 22 23 24 25 26 27 28 29 30 31 32 33 34 35 36 37 38 39 40 41 42 43
107
FTUS43 KGRB 310042 AAA
TAFGRB
TAF AMD
KGRB 310042Z 3101/3124 01010G16KT P6SM SCT035 BKN060
      TEMPO 3101/3103 BKN035
     FM310800 36005KT P6SM SKC
     FM311500 36009G17KT P6SM SCT045
     FM312200 02007KT P6SM SKC=

USA.gov is the U.S. government's official web portal to all federal, state and local government web resources and services.